Terminal Aerodrome Forecast
Issued by NWS Wilmington, OH

Current Version | Previous Version | Graphics & Text | Print | Product List | Glossary On
Versions: 1 2 3 4 5 6 7 8 9 10 11 12 13 14 15 16 17 18 19 20 21 22
000
FTUS41 KILN 231952 AAA
TAFCMH
TAF AMD
KCMH 231952Z 2320/2418 15012KT P6SM VCSH OVC050
     FM232200 12010KT 5SM -SHRA OVC035
     FM240600 10012KT P6SM VCSH OVC035
     FM241400 10012KT 5SM -SHRA OVC015=

USA.gov is the U.S. government's official web portal to all federal, state and local government web resources and services.